Azalea, Oregon
Current Conditions -  °F | °C
As of 3:56 AM on Friday 28 Nov 2014 (Local Time) from KSXT Reporting Station
Scattered Clouds Scattered Clouds  
Wind Chill: 36°   Ceiling: Unl
Heat Index: 44°   Visibility: 10mi
Dew Point: 38°   Wind: 17mph
Humidity: 79%   Direction: 190°S
Pressure: 29.81"   Gusts: 25mph
Location:  42.8°N, 123.26°W
Report Text: KSXT 281156Z AUTO 19015G22KT 10SM SCT070 07/03 A2981 RMK AO2 SLP084 7//// T00670033 10083 20061 56022 $
Loading
Personal Weather Stations






























Interactive Weather Map New forecast layout! Learn more

10-Day Weather Forecast

Advertisements
Track Severe Weather on mobile